sensor_id;sensor_type;location;lat;lon;timestamp;temperature;humidity
41457;DHT22;27197;51.752;5.220;2022-08-27T00:00:39;24.70;58.30
41457;DHT22;27197;51.752;5.220;2022-08-27T00:03:07;24.70;58.30
41457;DHT22;27197;51.752;5.220;2022-08-27T00:05:39;24.80;58.20
41457;DHT22;27197;51.752;5.220;2022-08-27T00:11:00;24.80;58.30
41457;DHT22;27197;51.752;5.220;2022-08-27T00:13:30;24.80;58.20
41457;DHT22;27197;51.752;5.220;2022-08-27T00:16:03;24.80;58.20
41457;DHT22;27197;51.752;5.220;2022-08-27T00:18:34;24.70;58.20
41457;DHT22;27197;51.752;5.220;2022-08-27T00:21:03;24.80;58.10
41457;DHT22;27197;51.752;5.220;2022-08-27T00:23:36;24.70;58.10
41457;DHT22;27197;51.752;5.220;2022-08-27T00:26:08;24.80;58.10
41457;DHT22;27197;51.752;5.220;2022-08-27T00:28:37;24.80;58.10
41457;DHT22;27197;51.752;5.220;2022-08-27T00:31:08;24.70;58.00
41457;DHT22;27197;51.752;5.220;2022-08-27T00:33:39;24.80;58.20
41457;DHT22;27197;51.752;5.220;2022-08-27T00:36:11;24.80;58.20
41457;DHT22;27197;51.752;5.220;2022-08-27T00:38:43;24.80;58.10
41457;DHT22;27197;51.752;5.220;2022-08-27T00:41:16;24.80;58.10
41457;DHT22;27197;51.752;5.220;2022-08-27T00:43:54;24.80;58.10
41457;DHT22;27197;51.752;5.220;2022-08-27T00:46:50;24.80;58.20
41457;DHT22;27197;51.752;5.220;2022-08-27T00:49:37;24.80;58.20
41457;DHT22;27197;51.752;5.220;2022-08-27T00:52:03;24.80;58.30
41457;DHT22;27197;51.752;5.220;2022-08-27T00:54:30;24.70;58.90
41457;DHT22;27197;51.752;5.220;2022-08-27T00:57:03;24.70;58.10
41457;DHT22;27197;51.752;5.220;2022-08-27T00:59:37;24.70;58.10
41457;DHT22;27197;51.752;5.220;2022-08-27T01:02:10;24.70;58.20
41457;DHT22;27197;51.752;5.220;2022-08-27T01:04:55;24.80;58.20
41457;DHT22;27197;51.752;5.220;2022-08-27T01:07:29;24.70;58.10
41457;DHT22;27197;51.752;5.220;2022-08-27T01:10:02;24.70;58.20
41457;DHT22;27197;51.752;5.220;2022-08-27T01:12:33;24.70;58.20
41457;DHT22;27197;51.752;5.220;2022-08-27T01:15:10;24.70;58.20
41457;DHT22;27197;51.752;5.220;2022-08-27T01:17:58;24.70;58.10
41457;DHT22;27197;51.752;5.220;2022-08-27T01:20:30;24.70;58.20
41457;DHT22;27197;51.752;5.220;2022-08-27T01:23:23;24.70;58.40
41457;DHT22;27197;51.752;5.220;2022-08-27T01:25:52;24.70;58.30
41457;DHT22;27197;51.752;5.220;2022-08-27T01:28:27;24.70;58.30
41457;DHT22;27197;51.752;5.220;2022-08-27T01:30:55;24.70;58.30
41457;DHT22;27197;51.752;5.220;2022-08-27T01:33:27;24.70;58.60
41457;DHT22;27197;51.752;5.220;2022-08-27T01:35:57;24.70;58.30
41457;DHT22;27197;51.752;5.220;2022-08-27T01:38:29;24.70;58.40
41457;DHT22;27197;51.752;5.220;2022-08-27T01:41:03;24.70;58.30
41457;DHT22;27197;51.752;5.220;2022-08-27T01:43:33;24.70;58.40
41457;DHT22;27197;51.752;5.220;2022-08-27T01:46:05;24.70;58.40
41457;DHT22;27197;51.752;5.220;2022-08-27T01:48:36;24.70;58.40
41457;DHT22;27197;51.752;5.220;2022-08-27T01:51:11;24.70;58.50
41457;DHT22;27197;51.752;5.220;2022-08-27T01:53:40;24.70;58.60
41457;DHT22;27197;51.752;5.220;2022-08-27T01:56:12;24.70;58.50
41457;DHT22;27197;51.752;5.220;2022-08-27T01:58:42;24.70;58.60
41457;DHT22;27197;51.752;5.220;2022-08-27T02:01:15;24.70;58.50
41457;DHT22;27197;51.752;5.220;2022-08-27T02:03:45;24.70;58.70
41457;DHT22;27197;51.752;5.220;2022-08-27T02:06:18;24.70;58.60
41457;DHT22;27197;51.752;5.220;2022-08-27T02:08:48;24.70;58.70
41457;DHT22;27197;51.752;5.220;2022-08-27T02:11:20;24.70;58.70
41457;DHT22;27197;51.752;5.220;2022-08-27T02:13:49;24.70;58.70
41457;DHT22;27197;51.752;5.220;2022-08-27T02:16:20;24.70;58.70
41457;DHT22;27197;51.752;5.220;2022-08-27T02:18:49;24.70;58.60
41457;DHT22;27197;51.752;5.220;2022-08-27T02:21:21;24.70;58.70
41457;DHT22;27197;51.752;5.220;2022-08-27T02:23:51;24.60;58.70
41457;DHT22;27197;51.752;5.220;2022-08-27T02:26:24;24.60;59.40
41457;DHT22;27197;51.752;5.220;2022-08-27T02:28:56;24.70;58.80
41457;DHT22;27197;51.752;5.220;2022-08-27T02:31:25;24.70;58.80
41457;DHT22;27197;51.752;5.220;2022-08-27T02:33:56;24.60;58.70
41457;DHT22;27197;51.752;5.220;2022-08-27T02:36:27;24.70;58.90
41457;DHT22;27197;51.752;5.220;2022-08-27T02:38:58;24.60;58.80
41457;DHT22;27197;51.752;5.220;2022-08-27T02:41:31;24.60;58.80
41457;DHT22;27197;51.752;5.220;2022-08-27T02:44:05;24.60;58.90
41457;DHT22;27197;51.752;5.220;2022-08-27T02:46:39;24.60;58.90
41457;DHT22;27197;51.752;5.220;2022-08-27T02:49:11;24.70;59.00
41457;DHT22;27197;51.752;5.220;2022-08-27T02:51:44;24.60;58.80
41457;DHT22;27197;51.752;5.220;2022-08-27T02:54:13;24.60;59.00
41457;DHT22;27197;51.752;5.220;2022-08-27T02:56:43;24.60;59.00
41457;DHT22;27197;51.752;5.220;2022-08-27T02:59:13;24.60;59.20
41457;DHT22;27197;51.752;5.220;2022-08-27T03:01:46;24.60;59.10
41457;DHT22;27197;51.752;5.220;2022-08-27T03:04:19;24.60;59.10
41457;DHT22;27197;51.752;5.220;2022-08-27T03:06:48;24.60;59.20
41457;DHT22;27197;51.752;5.220;2022-08-27T03:09:18;24.60;59.20
41457;DHT22;27197;51.752;5.220;2022-08-27T03:11:49;24.60;59.20
41457;DHT22;27197;51.752;5.220;2022-08-27T03:14:18;24.60;59.10
41457;DHT22;27197;51.752;5.220;2022-08-27T03:16:53;24.60;59.20
41457;DHT22;27197;51.752;5.220;2022-08-27T03:19:23;24.60;59.20
41457;DHT22;27197;51.752;5.220;2022-08-27T03:21:52;24.60;59.30
41457;DHT22;27197;51.752;5.220;2022-08-27T03:24:22;24.60;59.30
41457;DHT22;27197;51.752;5.220;2022-08-27T03:26:52;24.60;59.20
41457;DHT22;27197;51.752;5.220;2022-08-27T03:29:22;24.60;59.90
41457;DHT22;27197;51.752;5.220;2022-08-27T03:31:53;24.60;59.20
41457;DHT22;27197;51.752;5.220;2022-08-27T03:34:23;24.60;59.30
41457;DHT22;27197;51.752;5.220;2022-08-27T03:36:53;24.60;59.20
41457;DHT22;27197;51.752;5.220;2022-08-27T03:39:21;24.60;59.20
41457;DHT22;27197;51.752;5.220;2022-08-27T03:41:50;24.60;59.30
41457;DHT22;27197;51.752;5.220;2022-08-27T03:44:21;24.60;58.40
41457;DHT22;27197;51.752;5.220;2022-08-27T03:46:54;24.50;59.00
41457;DHT22;27197;51.752;5.220;2022-08-27T03:49:23;24.50;59.10
41457;DHT22;27197;51.752;5.220;2022-08-27T03:51:56;24.50;59.10
41457;DHT22;27197;51.752;5.220;2022-08-27T03:54:26;24.60;59.20
41457;DHT22;27197;51.752;5.220;2022-08-27T03:56:59;24.60;59.10
41457;DHT22;27197;51.752;5.220;2022-08-27T03:59:31;24.60;59.20
41457;DHT22;27197;51.752;5.220;2022-08-27T04:02:02;24.50;59.10
41457;DHT22;27197;51.752;5.220;2022-08-27T04:04:32;24.60;59.20
41457;DHT22;27197;51.752;5.220;2022-08-27T04:07:04;24.60;59.80
41457;DHT22;27197;51.752;5.220;2022-08-27T04:09:38;24.50;59.00
41457;DHT22;27197;51.752;5.220;2022-08-27T04:12:06;24.60;59.10
41457;DHT22;27197;51.752;5.220;2022-08-27T04:14:38;24.50;59.10
41457;DHT22;27197;51.752;5.220;2022-08-27T04:17:10;24.50;59.00
41457;DHT22;27197;51.752;5.220;2022-08-27T04:19:39;24.50;59.10
41457;DHT22;27197;51.752;5.220;2022-08-27T04:22:12;24.50;59.00
41457;DHT22;27197;51.752;5.220;2022-08-27T04:24:41;24.50;59.10
41457;DHT22;27197;51.752;5.220;2022-08-27T04:27:11;24.50;59.10
41457;DHT22;27197;51.752;5.220;2022-08-27T04:29:45;24.50;59.20
41457;DHT22;27197;51.752;5.220;2022-08-27T04:32:17;24.50;59.10
41457;DHT22;27197;51.752;5.220;2022-08-27T04:34:47;24.50;59.10
41457;DHT22;27197;51.752;5.220;2022-08-27T04:37:16;24.50;59.20
41457;DHT22;27197;51.752;5.220;2022-08-27T04:39:48;24.50;59.10
41457;DHT22;27197;51.752;5.220;2022-08-27T04:42:20;24.50;60.10
41457;DHT22;27197;51.752;5.220;2022-08-27T04:44:54;24.50;60.00
41457;DHT22;27197;51.752;5.220;2022-08-27T04:47:23;24.40;59.50
41457;DHT22;27197;51.752;5.220;2022-08-27T04:49:57;24.50;59.30
41457;DHT22;27197;51.752;5.220;2022-08-27T04:52:26;24.40;59.40
41457;DHT22;27197;51.752;5.220;2022-08-27T04:54:57;24.50;59.20
41457;DHT22;27197;51.752;5.220;2022-08-27T04:57:26;24.40;59.10
41457;DHT22;27197;51.752;5.220;2022-08-27T04:59:57;24.50;59.10
41457;DHT22;27197;51.752;5.220;2022-08-27T05:02:27;24.40;59.10
41457;DHT22;27197;51.752;5.220;2022-08-27T05:04:59;24.50;59.20
41457;DHT22;27197;51.752;5.220;2022-08-27T05:07:28;24.50;59.20
41457;DHT22;27197;51.752;5.220;2022-08-27T05:09:59;24.40;59.10
41457;DHT22;27197;51.752;5.220;2022-08-27T05:12:30;24.50;59.30
41457;DHT22;27197;51.752;5.220;2022-08-27T05:15:02;24.40;59.10
41457;DHT22;27197;51.752;5.220;2022-08-27T05:17:36;24.50;59.20
41457;DHT22;27197;51.752;5.220;2022-08-27T05:20:06;24.40;59.00
41457;DHT22;27197;51.752;5.220;2022-08-27T05:22:37;24.50;59.00
41457;DHT22;27197;51.752;5.220;2022-08-27T05:25:09;24.50;59.00
41457;DHT22;27197;51.752;5.220;2022-08-27T05:27:40;24.50;59.00
41457;DHT22;27197;51.752;5.220;2022-08-27T05:30:14;24.40;58.80
41457;DHT22;27197;51.752;5.220;2022-08-27T05:32:44;24.40;58.80
41457;DHT22;27197;51.752;5.220;2022-08-27T05:35:17;24.40;58.70
41457;DHT22;27197;51.752;5.220;2022-08-27T05:37:48;24.40;58.80
41457;DHT22;27197;51.752;5.220;2022-08-27T05:40:20;24.40;58.80
41457;DHT22;27197;51.752;5.220;2022-08-27T05:42:50;24.40;58.70
41457;DHT22;27197;51.752;5.220;2022-08-27T05:45:20;24.40;58.70
41457;DHT22;27197;51.752;5.220;2022-08-27T05:47:54;24.40;58.70
41457;DHT22;27197;51.752;5.220;2022-08-27T05:50:24;24.40;58.60
41457;DHT22;27197;51.752;5.220;2022-08-27T05:52:54;24.40;58.70
41457;DHT22;27197;51.752;5.220;2022-08-27T05:55:26;24.40;58.80
41457;DHT22;27197;51.752;5.220;2022-08-27T05:57:59;24.40;58.80
41457;DHT22;27197;51.752;5.220;2022-08-27T06:00:37;24.40;58.70
41457;DHT22;27197;51.752;5.220;2022-08-27T06:03:24;24.40;58.90
41457;DHT22;27197;51.752;5.220;2022-08-27T06:06:06;24.40;58.90
41457;DHT22;27197;51.752;5.220;2022-08-27T06:08:38;24.40;59.00
41457;DHT22;27197;51.752;5.220;2022-08-27T06:11:09;24.40;59.10
41457;DHT22;27197;51.752;5.220;2022-08-27T06:13:44;24.40;59.00
41457;DHT22;27197;51.752;5.220;2022-08-27T06:16:17;24.40;59.00
41457;DHT22;27197;51.752;5.220;2022-08-27T06:18:49;24.40;59.00
41457;DHT22;27197;51.752;5.220;2022-08-27T06:21:20;24.40;59.00
41457;DHT22;27197;51.752;5.220;2022-08-27T06:23:49;24.40;59.10
41457;DHT22;27197;51.752;5.220;2022-08-27T06:26:20;24.40;58.80
41457;DHT22;27197;51.752;5.220;2022-08-27T06:28:53;24.40;59.10
41457;DHT22;27197;51.752;5.220;2022-08-27T06:31:28;24.40;59.10
41457;DHT22;27197;51.752;5.220;2022-08-27T06:34:02;24.40;59.10
41457;DHT22;27197;51.752;5.220;2022-08-27T06:36:34;24.40;59.20
41457;DHT22;27197;51.752;5.220;2022-08-27T06:39:04;24.40;59.30
41457;DHT22;27197;51.752;5.220;2022-08-27T06:41:37;24.40;59.20
41457;DHT22;27197;51.752;5.220;2022-08-27T06:44:08;24.40;59.30
41457;DHT22;27197;51.752;5.220;2022-08-27T06:46:40;24.40;59.40
41457;DHT22;27197;51.752;5.220;2022-08-27T06:49:11;24.40;59.40
41457;DHT22;27197;51.752;5.220;2022-08-27T06:51:46;24.40;59.40
41457;DHT22;27197;51.752;5.220;2022-08-27T06:54:18;24.40;59.40
41457;DHT22;27197;51.752;5.220;2022-08-27T06:56:48;24.40;59.40
41457;DHT22;27197;51.752;5.220;2022-08-27T06:59:22;24.40;59.40
41457;DHT22;27197;51.752;5.220;2022-08-27T07:01:50;24.40;59.50
41457;DHT22;27197;51.752;5.220;2022-08-27T07:04:23;24.40;59.40
41457;DHT22;27197;51.752;5.220;2022-08-27T07:06:57;24.40;59.50
41457;DHT22;27197;51.752;5.220;2022-08-27T07:09:27;24.40;59.30
41457;DHT22;27197;51.752;5.220;2022-08-27T07:11:59;24.40;60.30
41457;DHT22;27197;51.752;5.220;2022-08-27T07:14:32;24.30;60.20
41457;DHT22;27197;51.752;5.220;2022-08-27T07:17:03;24.30;61.00
41457;DHT22;27197;51.752;5.220;2022-08-27T07:19:30;24.30;60.90
41457;DHT22;27197;51.752;5.220;2022-08-27T07:22:02;24.20;61.00
41457;DHT22;27197;51.752;5.220;2022-08-27T07:24:35;24.30;60.60
41457;DHT22;27197;51.752;5.220;2022-08-27T07:27:03;24.20;57.40
41457;DHT22;27197;51.752;5.220;2022-08-27T07:29:37;24.10;58.50
41457;DHT22;27197;51.752;5.220;2022-08-27T07:32:07;24.10;58.30
41457;DHT22;27197;51.752;5.220;2022-08-27T07:34:39;24.00;56.90
41457;DHT22;27197;51.752;5.220;2022-08-27T07:37:13;23.90;58.70
41457;DHT22;27197;51.752;5.220;2022-08-27T07:39:43;23.90;57.50
41457;DHT22;27197;51.752;5.220;2022-08-27T07:42:13;23.80;57.80
41457;DHT22;27197;51.752;5.220;2022-08-27T07:45:00;23.80;57.50
41457;DHT22;27197;51.752;5.220;2022-08-27T07:47:33;23.80;62.20
41457;DHT22;27197;51.752;5.220;2022-08-27T07:50:06;23.80;58.60
41457;DHT22;27197;51.752;5.220;2022-08-27T07:52:40;23.90;62.50
41457;DHT22;27197;51.752;5.220;2022-08-27T07:55:12;24.00;61.80
41457;DHT22;27197;51.752;5.220;2022-08-27T07:57:43;24.10;62.00
41457;DHT22;27197;51.752;5.220;2022-08-27T08:00:17;24.10;62.70
41457;DHT22;27197;51.752;5.220;2022-08-27T08:02:50;24.10;61.30
41457;DHT22;27197;51.752;5.220;2022-08-27T08:05:22;24.10;62.70
41457;DHT22;27197;51.752;5.220;2022-08-27T08:07:54;24.20;62.80
41457;DHT22;27197;51.752;5.220;2022-08-27T08:10:28;24.20;60.90
41457;DHT22;27197;51.752;5.220;2022-08-27T08:12:58;24.10;57.50
41457;DHT22;27197;51.752;5.220;2022-08-27T08:15:31;24.10;58.80
41457;DHT22;27197;51.752;5.220;2022-08-27T08:18:02;24.00;61.30
41457;DHT22;27197;51.752;5.220;2022-08-27T08:20:32;24.00;58.10
41457;DHT22;27197;51.752;5.220;2022-08-27T08:23:02;24.00;61.70
41457;DHT22;27197;51.752;5.220;2022-08-27T08:25:33;23.90;56.70
41457;DHT22;27197;51.752;5.220;2022-08-27T08:28:03;23.90;58.40
41457;DHT22;27197;51.752;5.220;2022-08-27T08:30:36;23.90;56.40
41457;DHT22;27197;51.752;5.220;2022-08-27T08:33:05;23.70;57.80
41457;DHT22;27197;51.752;5.220;2022-08-27T08:35:37;23.70;57.80
41457;DHT22;27197;51.752;5.220;2022-08-27T08:38:12;23.80;58.70
41457;DHT22;27197;51.752;5.220;2022-08-27T08:40:46;23.90;61.50
41457;DHT22;27197;51.752;5.220;2022-08-27T08:43:32;24.00;61.60
41457;DHT22;27197;51.752;5.220;2022-08-27T08:48:46;24.20;62.00
41457;DHT22;27197;51.752;5.220;2022-08-27T08:51:24;24.20;58.70
41457;DHT22;27197;51.752;5.220;2022-08-27T08:54:05;24.20;58.00
41457;DHT22;27197;51.752;5.220;2022-08-27T08:56:47;24.20;58.30
41457;DHT22;27197;51.752;5.220;2022-08-27T08:59:33;24.20;61.80
41457;DHT22;27197;51.752;5.220;2022-08-27T09:02:01;24.30;58.80
41457;DHT22;27197;51.752;5.220;2022-08-27T09:04:37;24.30;59.40
41457;DHT22;27197;51.752;5.220;2022-08-27T09:12:24;24.30;61.00
41457;DHT22;27197;51.752;5.220;2022-08-27T09:17:31;24.40;59.60
41457;DHT22;27197;51.752;5.220;2022-08-27T09:20:03;24.40;61.50
41457;DHT22;27197;51.752;5.220;2022-08-27T09:25:45;24.40;65.80
41457;DHT22;27197;51.752;5.220;2022-08-27T09:28:22;24.40;68.70
41457;DHT22;27197;51.752;5.220;2022-08-27T09:31:17;24.30;70.00
41457;DHT22;27197;51.752;5.220;2022-08-27T09:33:44;24.20;68.80
41457;DHT22;27197;51.752;5.220;2022-08-27T09:36:15;24.20;68.60
41457;DHT22;27197;51.752;5.220;2022-08-27T09:39:02;24.10;71.00
41457;DHT22;27197;51.752;5.220;2022-08-27T09:41:45;24.00;71.90
41457;DHT22;27197;51.752;5.220;2022-08-27T09:44:19;24.00;72.50
41457;DHT22;27197;51.752;5.220;2022-08-27T09:46:54;23.90;71.90
41457;DHT22;27197;51.752;5.220;2022-08-27T09:49:26;23.90;71.50
41457;DHT22;27197;51.752;5.220;2022-08-27T09:52:00;23.80;70.50
41457;DHT22;27197;51.752;5.220;2022-08-27T09:54:31;23.80;71.10
41457;DHT22;27197;51.752;5.220;2022-08-27T09:57:03;23.80;73.00
41457;DHT22;27197;51.752;5.220;2022-08-27T09:59:41;23.70;73.10
41457;DHT22;27197;51.752;5.220;2022-08-27T10:02:15;23.70;73.00
41457;DHT22;27197;51.752;5.220;2022-08-27T10:04:56;23.60;74.00
41457;DHT22;27197;51.752;5.220;2022-08-27T10:07:52;23.70;73.10
41457;DHT22;27197;51.752;5.220;2022-08-27T10:10:32;23.70;74.00
41457;DHT22;27197;51.752;5.220;2022-08-27T10:13:02;23.70;73.00
41457;DHT22;27197;51.752;5.220;2022-08-27T10:15:36;23.60;72.60
41457;DHT22;27197;51.752;5.220;2022-08-27T10:18:18;23.60;71.30
41457;DHT22;27197;51.752;5.220;2022-08-27T10:20:46;23.60;71.70
41457;DHT22;27197;51.752;5.220;2022-08-27T10:26:04;23.70;71.30
41457;DHT22;27197;51.752;5.220;2022-08-27T10:28:54;23.70;72.30
41457;DHT22;27197;51.752;5.220;2022-08-27T10:31:41;23.70;71.10
41457;DHT22;27197;51.752;5.220;2022-08-27T10:34:29;23.70;72.20
41457;DHT22;27197;51.752;5.220;2022-08-27T10:40:06;23.60;72.30
41457;DHT22;27197;51.752;5.220;2022-08-27T10:42:50;23.60;70.70
41457;DHT22;27197;51.752;5.220;2022-08-27T10:45:29;23.50;71.90
41457;DHT22;27197;51.752;5.220;2022-08-27T10:50:35;23.50;72.10
41457;DHT22;27197;51.752;5.220;2022-08-27T10:53:09;23.50;72.80
41457;DHT22;27197;51.752;5.220;2022-08-27T10:55:40;23.50;72.40
41457;DHT22;27197;51.752;5.220;2022-08-27T10:59:06;23.60;72.80
41457;DHT22;27197;51.752;5.220;2022-08-27T11:01:33;23.50;72.10
41457;DHT22;27197;51.752;5.220;2022-08-27T11:04:05;23.50;73.00
41457;DHT22;27197;51.752;5.220;2022-08-27T11:07:02;23.50;72.50
41457;DHT22;27197;51.752;5.220;2022-08-27T11:10:33;23.50;73.20
41457;DHT22;27197;51.752;5.220;2022-08-27T11:12:25;23.40;72.60
41457;DHT22;27197;51.752;5.220;2022-08-27T11:15:03;23.50;73.00
41457;DHT22;27197;51.752;5.220;2022-08-27T11:17:52;23.50;73.00
41457;DHT22;27197;51.752;5.220;2022-08-27T11:20:38;23.60;72.70
41457;DHT22;27197;51.752;5.220;2022-08-27T11:23:19;23.50;72.70
41457;DHT22;27197;51.752;5.220;2022-08-27T11:25:55;23.50;71.40
41457;DHT22;27197;51.752;5.220;2022-08-27T11:28:30;23.50;71.50
41457;DHT22;27197;51.752;5.220;2022-08-27T11:31:12;23.40;70.40
41457;DHT22;27197;51.752;5.220;2022-08-27T11:36:46;23.40;71.10
41457;DHT22;27197;51.752;5.220;2022-08-27T11:39:41;23.50;71.20
41457;DHT22;27197;51.752;5.220;2022-08-27T11:45:35;23.50;70.30
41457;DHT22;27197;51.752;5.220;2022-08-27T11:48:54;23.60;71.20
41457;DHT22;27197;51.752;5.220;2022-08-27T11:50:41;23.60;71.80
41457;DHT22;27197;51.752;5.220;2022-08-27T11:53:22;23.50;71.30
41457;DHT22;27197;51.752;5.220;2022-08-27T11:55:49;23.50;70.80
41457;DHT22;27197;51.752;5.220;2022-08-27T11:58:30;23.60;71.00
41457;DHT22;27197;51.752;5.220;2022-08-27T12:01:25;23.70;71.00
41457;DHT22;27197;51.752;5.220;2022-08-27T12:03:42;23.60;71.20
41457;DHT22;27197;51.752;5.220;2022-08-27T12:06:23;23.50;71.00
41457;DHT22;27197;51.752;5.220;2022-08-27T12:09:04;23.60;69.60
41457;DHT22;27197;51.752;5.220;2022-08-27T12:11:35;23.50;70.70
41457;DHT22;27197;51.752;5.220;2022-08-27T12:14:15;23.50;69.80
41457;DHT22;27197;51.752;5.220;2022-08-27T12:17:06;23.50;70.20
41457;DHT22;27197;51.752;5.220;2022-08-27T12:20:04;23.50;70.50
41457;DHT22;27197;51.752;5.220;2022-08-27T12:25:18;23.60;70.50
41457;DHT22;27197;51.752;5.220;2022-08-27T12:27:53;23.60;71.60
41457;DHT22;27197;51.752;5.220;2022-08-27T12:30:33;23.70;72.10
41457;DHT22;27197;51.752;5.220;2022-08-27T12:33:20;23.70;73.00
41457;DHT22;27197;51.752;5.220;2022-08-27T12:35:48;23.60;72.20
41457;DHT22;27197;51.752;5.220;2022-08-27T12:40:54;23.60;72.70
41457;DHT22;27197;51.752;5.220;2022-08-27T12:43:26;23.60;71.00
41457;DHT22;27197;51.752;5.220;2022-08-27T12:45:59;23.60;71.40
41457;DHT22;27197;51.752;5.220;2022-08-27T12:48:40;23.60;70.60
41457;DHT22;27197;51.752;5.220;2022-08-27T12:51:18;23.60;70.70
41457;DHT22;27197;51.752;5.220;2022-08-27T13:05:40;23.70;70.80
41457;DHT22;27197;51.752;5.220;2022-08-27T13:08:18;23.60;71.10
41457;DHT22;27197;51.752;5.220;2022-08-27T13:10:53;23.70;70.70
41457;DHT22;27197;51.752;5.220;2022-08-27T13:13:26;23.70;70.80
41457;DHT22;27197;51.752;5.220;2022-08-27T13:15:57;23.70;71.00
41457;DHT22;27197;51.752;5.220;2022-08-27T13:18:28;23.70;70.60
41457;DHT22;27197;51.752;5.220;2022-08-27T13:21:22;23.70;70.10
41457;DHT22;27197;51.752;5.220;2022-08-27T13:23:42;23.80;70.20
41457;DHT22;27197;51.752;5.220;2022-08-27T13:26:10;23.90;70.30
41457;DHT22;27197;51.752;5.220;2022-08-27T13:29:03;23.90;70.10
41457;DHT22;27197;51.752;5.220;2022-08-27T13:31:36;23.90;70.10
41457;DHT22;27197;51.752;5.220;2022-08-27T13:34:08;23.80;70.60
41457;DHT22;27197;51.752;5.220;2022-08-27T13:36:55;23.80;70.80
41457;DHT22;27197;51.752;5.220;2022-08-27T13:39:25;23.80;70.80
41457;DHT22;27197;51.752;5.220;2022-08-27T13:42:02;23.80;70.90
41457;DHT22;27197;51.752;5.220;2022-08-27T13:44:34;23.80;70.50
41457;DHT22;27197;51.752;5.220;2022-08-27T13:47:06;23.90;70.00
41457;DHT22;27197;51.752;5.220;2022-08-27T13:49:38;23.90;70.20
41457;DHT22;27197;51.752;5.220;2022-08-27T13:52:26;23.90;69.60
41457;DHT22;27197;51.752;5.220;2022-08-27T13:55:09;24.00;70.50
41457;DHT22;27197;51.752;5.220;2022-08-27T13:57:46;24.00;69.90
41457;DHT22;27197;51.752;5.220;2022-08-27T14:00:17;23.90;70.00
41457;DHT22;27197;51.752;5.220;2022-08-27T14:02:47;24.00;69.90
41457;DHT22;27197;51.752;5.220;2022-08-27T14:05:31;24.00;69.50
41457;DHT22;27197;51.752;5.220;2022-08-27T14:08:11;24.00;69.90
41457;DHT22;27197;51.752;5.220;2022-08-27T14:10:57;24.10;69.60
41457;DHT22;27197;51.752;5.220;2022-08-27T14:13:20;24.10;69.70
41457;DHT22;27197;51.752;5.220;2022-08-27T14:15:54;24.10;69.80
41457;DHT22;27197;51.752;5.220;2022-08-27T14:18:32;24.00;69.10
41457;DHT22;27197;51.752;5.220;2022-08-27T14:21:04;24.00;70.50
41457;DHT22;27197;51.752;5.220;2022-08-27T14:23:37;24.00;69.50
41457;DHT22;27197;51.752;5.220;2022-08-27T14:26:10;23.90;69.50
41457;DHT22;27197;51.752;5.220;2022-08-27T14:28:42;23.90;70.10
41457;DHT22;27197;51.752;5.220;2022-08-27T14:31:14;24.00;69.70
41457;DHT22;27197;51.752;5.220;2022-08-27T14:33:43;24.00;69.70
41457;DHT22;27197;51.752;5.220;2022-08-27T14:36:17;24.00;69.60
41457;DHT22;27197;51.752;5.220;2022-08-27T14:38:50;23.90;69.90
41457;DHT22;27197;51.752;5.220;2022-08-27T14:41:19;23.90;70.00
41457;DHT22;27197;51.752;5.220;2022-08-27T14:43:52;23.90;70.30
41457;DHT22;27197;51.752;5.220;2022-08-27T14:46:29;24.00;69.90
41457;DHT22;27197;51.752;5.220;2022-08-27T14:49:04;24.00;70.00
41457;DHT22;27197;51.752;5.220;2022-08-27T14:51:32;24.00;69.40
41457;DHT22;27197;51.752;5.220;2022-08-27T14:54:02;24.10;69.20
41457;DHT22;27197;51.752;5.220;2022-08-27T14:56:33;24.10;69.80
41457;DHT22;27197;51.752;5.220;2022-08-27T14:59:04;24.10;69.70
41457;DHT22;27197;51.752;5.220;2022-08-27T15:01:32;24.10;69.70
41457;DHT22;27197;51.752;5.220;2022-08-27T15:04:06;24.00;68.30
41457;DHT22;27197;51.752;5.220;2022-08-27T15:06:36;24.00;69.70
41457;DHT22;27197;51.752;5.220;2022-08-27T15:09:06;24.00;69.70
41457;DHT22;27197;51.752;5.220;2022-08-27T15:11:39;24.00;69.00
41457;DHT22;27197;51.752;5.220;2022-08-27T15:14:12;24.10;69.50
41457;DHT22;27197;51.752;5.220;2022-08-27T15:16:42;24.10;69.70
41457;DHT22;27197;51.752;5.220;2022-08-27T15:19:13;24.00;69.30
41457;DHT22;27197;51.752;5.220;2022-08-27T15:21:52;24.00;69.50
41457;DHT22;27197;51.752;5.220;2022-08-27T15:24:29;24.00;69.80
41457;DHT22;27197;51.752;5.220;2022-08-27T15:27:00;24.00;69.10
41457;DHT22;27197;51.752;5.220;2022-08-27T15:29:32;24.00;69.40
41457;DHT22;27197;51.752;5.220;2022-08-27T15:32:05;24.10;68.40
41457;DHT22;27197;51.752;5.220;2022-08-27T15:34:37;24.10;69.30
41457;DHT22;27197;51.752;5.220;2022-08-27T15:37:14;24.00;68.30
41457;DHT22;27197;51.752;5.220;2022-08-27T15:39:44;24.00;68.60
41457;DHT22;27197;51.752;5.220;2022-08-27T15:42:19;24.00;68.10
41457;DHT22;27197;51.752;5.220;2022-08-27T15:44:50;24.10;68.00
41457;DHT22;27197;51.752;5.220;2022-08-27T15:47:24;24.10;68.20
41457;DHT22;27197;51.752;5.220;2022-08-27T15:49:59;24.10;68.50
41457;DHT22;27197;51.752;5.220;2022-08-27T15:52:32;24.00;68.20
41457;DHT22;27197;51.752;5.220;2022-08-27T15:55:05;24.10;68.20
41457;DHT22;27197;51.752;5.220;2022-08-27T15:57:37;24.10;67.40
41457;DHT22;27197;51.752;5.220;2022-08-27T16:00:12;24.10;68.20
41457;DHT22;27197;51.752;5.220;2022-08-27T16:02:45;24.10;68.10
41457;DHT22;27197;51.752;5.220;2022-08-27T16:05:18;24.00;68.10
41457;DHT22;27197;51.752;5.220;2022-08-27T16:07:50;24.00;67.70
41457;DHT22;27197;51.752;5.220;2022-08-27T16:10:19;24.00;68.00
41457;DHT22;27197;51.752;5.220;2022-08-27T16:12:51;24.00;68.00
41457;DHT22;27197;51.752;5.220;2022-08-27T16:15:27;24.00;68.10
41457;DHT22;27197;51.752;5.220;2022-08-27T16:17:59;24.00;66.80
41457;DHT22;27197;51.752;5.220;2022-08-27T16:20:36;24.00;67.90
41457;DHT22;27197;51.752;5.220;2022-08-27T16:23:12;24.00;67.80
41457;DHT22;27197;51.752;5.220;2022-08-27T16:25:45;24.00;67.50
41457;DHT22;27197;51.752;5.220;2022-08-27T16:28:20;24.00;67.30
41457;DHT22;27197;51.752;5.220;2022-08-27T16:30:55;24.00;67.60
41457;DHT22;27197;51.752;5.220;2022-08-27T16:33:25;24.00;67.50
41457;DHT22;27197;51.752;5.220;2022-08-27T16:35:57;24.00;67.30
41457;DHT22;27197;51.752;5.220;2022-08-27T16:38:27;24.00;67.20
41457;DHT22;27197;51.752;5.220;2022-08-27T16:41:03;24.00;67.20
41457;DHT22;27197;51.752;5.220;2022-08-27T16:43:35;24.00;67.10
41457;DHT22;27197;51.752;5.220;2022-08-27T16:46:04;24.10;67.00
41457;DHT22;27197;51.752;5.220;2022-08-27T16:48:35;24.10;65.90
41457;DHT22;27197;51.752;5.220;2022-08-27T16:51:25;24.20;66.90
41457;DHT22;27197;51.752;5.220;2022-08-27T16:53:54;24.10;66.70
41457;DHT22;27197;51.752;5.220;2022-08-27T16:56:26;24.10;66.70
41457;DHT22;27197;51.752;5.220;2022-08-27T16:58:57;24.10;66.40